sensor_id;sensor_type;location;lat;lon;timestamp;temperature;humidity
21019;DHT22;10667;51.056;3.732;2023-09-19T00:02:19;17.30;99.90
21019;DHT22;10667;51.056;3.732;2023-09-19T00:04:44;17.30;99.90
21019;DHT22;10667;51.056;3.732;2023-09-19T00:07:10;17.30;99.90
21019;DHT22;10667;51.056;3.732;2023-09-19T00:09:35;17.30;99.90
21019;DHT22;10667;51.056;3.732;2023-09-19T00:12:06;17.40;99.90
21019;DHT22;10667;51.056;3.732;2023-09-19T00:14:32;17.50;99.90
21019;DHT22;10667;51.056;3.732;2023-09-19T00:17:04;17.40;99.90
21019;DHT22;10667;51.056;3.732;2023-09-19T00:19:36;17.50;99.90
21019;DHT22;10667;51.056;3.732;2023-09-19T00:22:08;17.60;99.90
21019;DHT22;10667;51.056;3.732;2023-09-19T00:24:33;17.60;99.90
21019;DHT22;10667;51.056;3.732;2023-09-19T00:26:59;17.60;99.90
21019;DHT22;10667;51.056;3.732;2023-09-19T00:29:25;17.30;99.90
21019;DHT22;10667;51.056;3.732;2023-09-19T00:31:55;17.40;99.90
21019;DHT22;10667;51.056;3.732;2023-09-19T00:34:22;17.30;99.90
21019;DHT22;10667;51.056;3.732;2023-09-19T00:36:48;17.40;99.90
21019;DHT22;10667;51.056;3.732;2023-09-19T00:39:13;17.40;99.90
21019;DHT22;10667;51.056;3.732;2023-09-19T00:41:39;17.40;99.90
21019;DHT22;10667;51.056;3.732;2023-09-19T00:44:06;17.40;99.90
21019;DHT22;10667;51.056;3.732;2023-09-19T00:46:32;17.40;99.90
21019;DHT22;10667;51.056;3.732;2023-09-19T00:48:58;17.40;99.90
21019;DHT22;10667;51.056;3.732;2023-09-19T00:51:25;17.20;99.90
21019;DHT22;10667;51.056;3.732;2023-09-19T00:53:53;17.20;99.90
21019;DHT22;10667;51.056;3.732;2023-09-19T00:56:19;17.30;99.90
21019;DHT22;10667;51.056;3.732;2023-09-19T00:58:46;17.30;99.90
21019;DHT22;10667;51.056;3.732;2023-09-19T01:01:13;17.30;99.90
21019;DHT22;10667;51.056;3.732;2023-09-19T01:03:40;17.20;99.90
21019;DHT22;10667;51.056;3.732;2023-09-19T01:06:07;17.30;99.90
21019;DHT22;10667;51.056;3.732;2023-09-19T01:08:34;17.10;99.90
21019;DHT22;10667;51.056;3.732;2023-09-19T01:11:11;17.00;99.90
21019;DHT22;10667;51.056;3.732;2023-09-19T01:16:48;16.90;99.90
21019;DHT22;10667;51.056;3.732;2023-09-19T01:19:53;17.00;99.90
21019;DHT22;10667;51.056;3.732;2023-09-19T01:22:33;17.10;99.90
21019;DHT22;10667;51.056;3.732;2023-09-19T01:28:14;16.90;99.90
21019;DHT22;10667;51.056;3.732;2023-09-19T01:30:43;17.00;99.90
21019;DHT22;10667;51.056;3.732;2023-09-19T01:33:09;16.90;99.90
21019;DHT22;10667;51.056;3.732;2023-09-19T01:35:40;16.90;99.90
21019;DHT22;10667;51.056;3.732;2023-09-19T01:38:08;17.00;99.90
21019;DHT22;10667;51.056;3.732;2023-09-19T01:40:44;17.00;99.90
21019;DHT22;10667;51.056;3.732;2023-09-19T01:43:41;17.00;99.90
21019;DHT22;10667;51.056;3.732;2023-09-19T01:46:29;17.00;99.90
21019;DHT22;10667;51.056;3.732;2023-09-19T01:49:25;17.00;99.90
21019;DHT22;10667;51.056;3.732;2023-09-19T01:52:12;17.10;99.90
21019;DHT22;10667;51.056;3.732;2023-09-19T01:54:52;17.00;99.90
21019;DHT22;10667;51.056;3.732;2023-09-19T01:58:14;17.10;99.90
21019;DHT22;10667;51.056;3.732;2023-09-19T02:00:21;17.10;99.90
21019;DHT22;10667;51.056;3.732;2023-09-19T02:02:49;16.90;99.90
21019;DHT22;10667;51.056;3.732;2023-09-19T02:05:23;17.00;99.90
21019;DHT22;10667;51.056;3.732;2023-09-19T02:07:49;17.00;99.90
21019;DHT22;10667;51.056;3.732;2023-09-19T02:10:15;17.10;99.90
21019;DHT22;10667;51.056;3.732;2023-09-19T02:12:42;17.20;99.90
21019;DHT22;10667;51.056;3.732;2023-09-19T02:15:08;17.30;99.90
21019;DHT22;10667;51.056;3.732;2023-09-19T02:17:34;17.10;99.90
21019;DHT22;10667;51.056;3.732;2023-09-19T02:20:00;17.00;99.90
21019;DHT22;10667;51.056;3.732;2023-09-19T02:22:26;17.10;99.90
21019;DHT22;10667;51.056;3.732;2023-09-19T02:24:53;17.00;99.90
21019;DHT22;10667;51.056;3.732;2023-09-19T02:27:19;17.00;99.90
21019;DHT22;10667;51.056;3.732;2023-09-19T02:29:45;17.10;99.90
21019;DHT22;10667;51.056;3.732;2023-09-19T02:32:10;17.00;99.90
21019;DHT22;10667;51.056;3.732;2023-09-19T02:34:36;17.00;99.90
21019;DHT22;10667;51.056;3.732;2023-09-19T02:37:03;17.10;99.90
21019;DHT22;10667;51.056;3.732;2023-09-19T02:39:31;17.10;99.90
21019;DHT22;10667;51.056;3.732;2023-09-19T02:41:56;17.10;99.90
21019;DHT22;10667;51.056;3.732;2023-09-19T02:44:22;17.20;99.90
21019;DHT22;10667;51.056;3.732;2023-09-19T02:46:49;17.20;99.90
21019;DHT22;10667;51.056;3.732;2023-09-19T02:49:15;17.10;99.90
21019;DHT22;10667;51.056;3.732;2023-09-19T02:51:41;17.10;99.90
21019;DHT22;10667;51.056;3.732;2023-09-19T02:54:07;17.10;99.90
21019;DHT22;10667;51.056;3.732;2023-09-19T02:56:33;17.10;99.90
21019;DHT22;10667;51.056;3.732;2023-09-19T02:58:59;17.20;99.90
21019;DHT22;10667;51.056;3.732;2023-09-19T03:01:26;17.20;99.90
21019;DHT22;10667;51.056;3.732;2023-09-19T03:03:53;17.30;99.90
21019;DHT22;10667;51.056;3.732;2023-09-19T03:06:19;17.40;99.90
21019;DHT22;10667;51.056;3.732;2023-09-19T03:08:46;17.40;99.90
21019;DHT22;10667;51.056;3.732;2023-09-19T03:11:12;17.30;99.90
21019;DHT22;10667;51.056;3.732;2023-09-19T03:13:40;17.10;99.90
21019;DHT22;10667;51.056;3.732;2023-09-19T03:16:08;17.00;99.90
21019;DHT22;10667;51.056;3.732;2023-09-19T03:18:37;17.00;99.90
21019;DHT22;10667;51.056;3.732;2023-09-19T03:21:02;17.10;99.90
21019;DHT22;10667;51.056;3.732;2023-09-19T03:23:28;17.00;99.90
21019;DHT22;10667;51.056;3.732;2023-09-19T03:25:55;17.10;99.90
21019;DHT22;10667;51.056;3.732;2023-09-19T03:28:22;17.20;99.90
21019;DHT22;10667;51.056;3.732;2023-09-19T03:31:04;17.10;99.90
21019;DHT22;10667;51.056;3.732;2023-09-19T03:33:30;17.00;99.90
21019;DHT22;10667;51.056;3.732;2023-09-19T03:36:00;16.90;99.90
21019;DHT22;10667;51.056;3.732;2023-09-19T03:38:27;16.80;99.90
21019;DHT22;10667;51.056;3.732;2023-09-19T03:40:54;16.80;99.90
21019;DHT22;10667;51.056;3.732;2023-09-19T03:43:20;16.80;99.90
21019;DHT22;10667;51.056;3.732;2023-09-19T03:45:45;16.80;99.90
21019;DHT22;10667;51.056;3.732;2023-09-19T03:48:12;16.70;99.90
21019;DHT22;10667;51.056;3.732;2023-09-19T03:50:38;16.60;99.90
21019;DHT22;10667;51.056;3.732;2023-09-19T03:53:04;16.70;99.90
21019;DHT22;10667;51.056;3.732;2023-09-19T03:55:32;16.70;99.90
21019;DHT22;10667;51.056;3.732;2023-09-19T03:57:58;16.70;99.90
21019;DHT22;10667;51.056;3.732;2023-09-19T04:00:24;16.70;99.90
21019;DHT22;10667;51.056;3.732;2023-09-19T04:02:52;16.70;99.90
21019;DHT22;10667;51.056;3.732;2023-09-19T04:05:19;16.60;99.90
21019;DHT22;10667;51.056;3.732;2023-09-19T04:07:44;16.60;99.90
21019;DHT22;10667;51.056;3.732;2023-09-19T04:10:10;16.50;99.90
21019;DHT22;10667;51.056;3.732;2023-09-19T04:12:40;16.40;99.90
21019;DHT22;10667;51.056;3.732;2023-09-19T04:15:06;16.30;99.90
21019;DHT22;10667;51.056;3.732;2023-09-19T04:17:32;16.30;99.90
21019;DHT22;10667;51.056;3.732;2023-09-19T04:19:59;16.20;99.90
21019;DHT22;10667;51.056;3.732;2023-09-19T04:22:25;16.20;99.90
21019;DHT22;10667;51.056;3.732;2023-09-19T04:24:50;16.30;99.90
21019;DHT22;10667;51.056;3.732;2023-09-19T04:27:16;16.30;99.90
21019;DHT22;10667;51.056;3.732;2023-09-19T04:29:42;16.20;99.90
21019;DHT22;10667;51.056;3.732;2023-09-19T04:32:08;16.20;99.90
21019;DHT22;10667;51.056;3.732;2023-09-19T04:34:35;16.30;99.90
21019;DHT22;10667;51.056;3.732;2023-09-19T04:37:01;16.40;99.90
21019;DHT22;10667;51.056;3.732;2023-09-19T04:39:27;16.50;99.90
21019;DHT22;10667;51.056;3.732;2023-09-19T04:41:54;16.50;99.90
21019;DHT22;10667;51.056;3.732;2023-09-19T04:44:20;16.50;99.90
21019;DHT22;10667;51.056;3.732;2023-09-19T04:46:46;16.50;99.90
21019;DHT22;10667;51.056;3.732;2023-09-19T04:49:12;16.30;99.90
21019;DHT22;10667;51.056;3.732;2023-09-19T04:51:39;16.30;99.90
21019;DHT22;10667;51.056;3.732;2023-09-19T04:54:05;16.40;99.90
21019;DHT22;10667;51.056;3.732;2023-09-19T04:56:31;16.30;99.90
21019;DHT22;10667;51.056;3.732;2023-09-19T04:58:58;16.30;99.90
21019;DHT22;10667;51.056;3.732;2023-09-19T05:01:24;16.50;99.90
21019;DHT22;10667;51.056;3.732;2023-09-19T05:03:50;16.50;99.90
21019;DHT22;10667;51.056;3.732;2023-09-19T05:06:19;16.30;99.90
21019;DHT22;10667;51.056;3.732;2023-09-19T05:08:48;16.20;99.90
21019;DHT22;10667;51.056;3.732;2023-09-19T05:11:18;16.30;99.90
21019;DHT22;10667;51.056;3.732;2023-09-19T05:13:44;16.30;99.90
21019;DHT22;10667;51.056;3.732;2023-09-19T05:16:09;16.20;99.90
21019;DHT22;10667;51.056;3.732;2023-09-19T05:18:36;16.30;99.90
21019;DHT22;10667;51.056;3.732;2023-09-19T05:21:04;16.40;99.90
21019;DHT22;10667;51.056;3.732;2023-09-19T05:23:30;16.20;99.90
21019;DHT22;10667;51.056;3.732;2023-09-19T05:25:56;16.00;99.90
21019;DHT22;10667;51.056;3.732;2023-09-19T05:28:23;15.90;99.90
21019;DHT22;10667;51.056;3.732;2023-09-19T05:30:49;15.90;99.90
21019;DHT22;10667;51.056;3.732;2023-09-19T05:33:15;15.80;99.90
21019;DHT22;10667;51.056;3.732;2023-09-19T05:35:41;16.00;99.90
21019;DHT22;10667;51.056;3.732;2023-09-19T05:38:07;15.90;99.90
21019;DHT22;10667;51.056;3.732;2023-09-19T05:40:35;16.10;99.90
21019;DHT22;10667;51.056;3.732;2023-09-19T05:43:01;16.00;99.90
21019;DHT22;10667;51.056;3.732;2023-09-19T05:45:29;16.10;99.90
21019;DHT22;10667;51.056;3.732;2023-09-19T05:47:55;16.10;99.90
21019;DHT22;10667;51.056;3.732;2023-09-19T05:50:29;16.10;99.90
21019;DHT22;10667;51.056;3.732;2023-09-19T05:52:55;16.10;99.90
21019;DHT22;10667;51.056;3.732;2023-09-19T05:55:24;16.10;99.90
21019;DHT22;10667;51.056;3.732;2023-09-19T05:57:53;16.10;99.90
21019;DHT22;10667;51.056;3.732;2023-09-19T06:00:20;16.30;99.90
21019;DHT22;10667;51.056;3.732;2023-09-19T06:02:52;16.20;99.90
21019;DHT22;10667;51.056;3.732;2023-09-19T06:05:18;16.30;99.90
21019;DHT22;10667;51.056;3.732;2023-09-19T06:07:44;16.30;99.90
21019;DHT22;10667;51.056;3.732;2023-09-19T06:10:09;16.20;99.90
21019;DHT22;10667;51.056;3.732;2023-09-19T06:12:54;16.30;99.90
21019;DHT22;10667;51.056;3.732;2023-09-19T06:15:21;16.20;99.90
21019;DHT22;10667;51.056;3.732;2023-09-19T06:17:49;16.20;99.90
21019;DHT22;10667;51.056;3.732;2023-09-19T06:20:16;16.30;99.90
21019;DHT22;10667;51.056;3.732;2023-09-19T06:22:45;16.50;99.90
21019;DHT22;10667;51.056;3.732;2023-09-19T06:25:12;16.50;99.90
21019;DHT22;10667;51.056;3.732;2023-09-19T06:27:45;16.40;99.90
21019;DHT22;10667;51.056;3.732;2023-09-19T06:30:11;16.50;99.90
21019;DHT22;10667;51.056;3.732;2023-09-19T06:32:42;16.50;99.90
21019;DHT22;10667;51.056;3.732;2023-09-19T06:35:12;16.40;99.90
21019;DHT22;10667;51.056;3.732;2023-09-19T06:37:39;16.40;99.90
21019;DHT22;10667;51.056;3.732;2023-09-19T06:40:09;16.50;99.90
21019;DHT22;10667;51.056;3.732;2023-09-19T06:42:43;16.60;99.90
21019;DHT22;10667;51.056;3.732;2023-09-19T06:45:13;16.80;99.90
21019;DHT22;10667;51.056;3.732;2023-09-19T06:47:43;16.70;99.90
21019;DHT22;10667;51.056;3.732;2023-09-19T06:50:09;16.70;99.90
21019;DHT22;10667;51.056;3.732;2023-09-19T06:52:40;16.70;99.90
21019;DHT22;10667;51.056;3.732;2023-09-19T06:55:07;16.70;99.90
21019;DHT22;10667;51.056;3.732;2023-09-19T06:57:32;16.70;99.90
21019;DHT22;10667;51.056;3.732;2023-09-19T06:59:58;16.60;99.90
21019;DHT22;10667;51.056;3.732;2023-09-19T07:02:24;16.60;99.90
21019;DHT22;10667;51.056;3.732;2023-09-19T07:04:49;16.60;99.90
21019;DHT22;10667;51.056;3.732;2023-09-19T07:07:15;16.60;99.90
21019;DHT22;10667;51.056;3.732;2023-09-19T07:09:41;16.80;99.90
21019;DHT22;10667;51.056;3.732;2023-09-19T07:12:07;16.90;99.90
21019;DHT22;10667;51.056;3.732;2023-09-19T07:14:33;16.80;99.90
21019;DHT22;10667;51.056;3.732;2023-09-19T07:16:59;16.80;99.90
21019;DHT22;10667;51.056;3.732;2023-09-19T07:19:29;16.90;99.90
21019;DHT22;10667;51.056;3.732;2023-09-19T07:21:55;16.90;99.90
21019;DHT22;10667;51.056;3.732;2023-09-19T07:24:21;16.80;99.90
21019;DHT22;10667;51.056;3.732;2023-09-19T07:26:49;16.90;99.90
21019;DHT22;10667;51.056;3.732;2023-09-19T07:29:15;17.00;99.90
21019;DHT22;10667;51.056;3.732;2023-09-19T07:31:41;17.00;99.90
21019;DHT22;10667;51.056;3.732;2023-09-19T07:34:07;17.10;99.90
21019;DHT22;10667;51.056;3.732;2023-09-19T07:36:34;17.20;99.90
21019;DHT22;10667;51.056;3.732;2023-09-19T07:39:00;17.30;99.90
21019;DHT22;10667;51.056;3.732;2023-09-19T07:41:26;17.30;99.90
21019;DHT22;10667;51.056;3.732;2023-09-19T07:43:52;17.20;99.90
21019;DHT22;10667;51.056;3.732;2023-09-19T07:46:18;17.30;99.90
21019;DHT22;10667;51.056;3.732;2023-09-19T07:48:44;17.30;99.90
21019;DHT22;10667;51.056;3.732;2023-09-19T07:51:14;17.40;99.90
21019;DHT22;10667;51.056;3.732;2023-09-19T07:53:41;17.40;99.90
21019;DHT22;10667;51.056;3.732;2023-09-19T07:56:09;17.60;99.90
21019;DHT22;10667;51.056;3.732;2023-09-19T07:58:35;17.60;99.90
21019;DHT22;10667;51.056;3.732;2023-09-19T08:01:11;17.70;99.90
21019;DHT22;10667;51.056;3.732;2023-09-19T08:03:39;17.80;99.90
21019;DHT22;10667;51.056;3.732;2023-09-19T08:06:09;17.90;99.90
21019;DHT22;10667;51.056;3.732;2023-09-19T08:08:36;18.10;99.90
21019;DHT22;10667;51.056;3.732;2023-09-19T08:11:05;18.10;99.90
21019;DHT22;10667;51.056;3.732;2023-09-19T08:13:41;18.00;99.90
21019;DHT22;10667;51.056;3.732;2023-09-19T08:16:10;18.00;99.90
21019;DHT22;10667;51.056;3.732;2023-09-19T08:18:36;18.00;99.90
21019;DHT22;10667;51.056;3.732;2023-09-19T08:21:05;18.30;99.90
21019;DHT22;10667;51.056;3.732;2023-09-19T08:23:33;18.20;99.90
21019;DHT22;10667;51.056;3.732;2023-09-19T08:25:59;18.30;99.90
21019;DHT22;10667;51.056;3.732;2023-09-19T08:28:28;18.30;99.90
21019;DHT22;10667;51.056;3.732;2023-09-19T08:30:55;18.40;99.90
21019;DHT22;10667;51.056;3.732;2023-09-19T08:33:21;18.50;99.90
21019;DHT22;10667;51.056;3.732;2023-09-19T08:35:46;18.40;99.90
21019;DHT22;10667;51.056;3.732;2023-09-19T08:38:12;18.40;99.90
21019;DHT22;10667;51.056;3.732;2023-09-19T08:40:40;18.40;99.90
21019;DHT22;10667;51.056;3.732;2023-09-19T08:43:07;18.40;99.90
21019;DHT22;10667;51.056;3.732;2023-09-19T08:45:34;18.60;99.90
21019;DHT22;10667;51.056;3.732;2023-09-19T08:48:20;18.70;99.90
21019;DHT22;10667;51.056;3.732;2023-09-19T08:51:03;18.60;99.90
21019;DHT22;10667;51.056;3.732;2023-09-19T08:53:42;18.70;99.90
21019;DHT22;10667;51.056;3.732;2023-09-19T08:56:09;18.80;99.90
21019;DHT22;10667;51.056;3.732;2023-09-19T08:59:02;18.90;99.90
21019;DHT22;10667;51.056;3.732;2023-09-19T09:01:28;19.10;99.90
21019;DHT22;10667;51.056;3.732;2023-09-19T09:03:55;19.10;99.90
21019;DHT22;10667;51.056;3.732;2023-09-19T09:06:22;19.20;99.90
21019;DHT22;10667;51.056;3.732;2023-09-19T09:08:50;19.40;99.90
21019;DHT22;10667;51.056;3.732;2023-09-19T09:11:17;19.30;99.90
21019;DHT22;10667;51.056;3.732;2023-09-19T09:13:47;19.40;99.90
21019;DHT22;10667;51.056;3.732;2023-09-19T09:16:14;19.20;99.90
21019;DHT22;10667;51.056;3.732;2023-09-19T09:18:43;19.10;99.90
21019;DHT22;10667;51.056;3.732;2023-09-19T09:21:09;19.10;99.90
21019;DHT22;10667;51.056;3.732;2023-09-19T09:23:35;18.90;99.90
21019;DHT22;10667;51.056;3.732;2023-09-19T09:26:01;18.90;99.90
21019;DHT22;10667;51.056;3.732;2023-09-19T09:28:32;19.00;99.90
21019;DHT22;10667;51.056;3.732;2023-09-19T09:30:59;19.10;99.90
21019;DHT22;10667;51.056;3.732;2023-09-19T09:33:25;19.10;99.90
21019;DHT22;10667;51.056;3.732;2023-09-19T09:38:23;19.20;99.90
21019;DHT22;10667;51.056;3.732;2023-09-19T09:40:58;19.10;99.90
21019;DHT22;10667;51.056;3.732;2023-09-19T09:43:34;19.20;99.90
21019;DHT22;10667;51.056;3.732;2023-09-19T09:46:20;19.40;99.90
21019;DHT22;10667;51.056;3.732;2023-09-19T09:48:47;19.50;99.90
21019;DHT22;10667;51.056;3.732;2023-09-19T09:51:33;19.60;99.90
21019;DHT22;10667;51.056;3.732;2023-09-19T09:54:18;19.80;99.90
21019;DHT22;10667;51.056;3.732;2023-09-19T09:59:21;20.10;99.90
21019;DHT22;10667;51.056;3.732;2023-09-19T10:01:49;20.20;99.90
21019;DHT22;10667;51.056;3.732;2023-09-19T10:04:35;20.40;99.90
21019;DHT22;10667;51.056;3.732;2023-09-19T10:07:08;20.70;99.90
21019;DHT22;10667;51.056;3.732;2023-09-19T10:09:46;20.90;99.90
21019;DHT22;10667;51.056;3.732;2023-09-19T10:12:14;20.90;99.90
21019;DHT22;10667;51.056;3.732;2023-09-19T10:14:42;20.90;99.90
21019;DHT22;10667;51.056;3.732;2023-09-19T10:17:13;21.00;99.90
21019;DHT22;10667;51.056;3.732;2023-09-19T10:22:19;21.00;99.90
21019;DHT22;10667;51.056;3.732;2023-09-19T10:24:49;20.90;99.90
21019;DHT22;10667;51.056;3.732;2023-09-19T10:27:20;21.00;99.90
21019;DHT22;10667;51.056;3.732;2023-09-19T10:29:49;21.00;99.90
21019;DHT22;10667;51.056;3.732;2023-09-19T10:32:19;21.00;99.90
21019;DHT22;10667;51.056;3.732;2023-09-19T10:34:47;21.20;99.90
21019;DHT22;10667;51.056;3.732;2023-09-19T10:37:16;21.60;99.90
21019;DHT22;10667;51.056;3.732;2023-09-19T10:39:46;21.80;99.90
21019;DHT22;10667;51.056;3.732;2023-09-19T10:42:16;22.00;99.90
21019;DHT22;10667;51.056;3.732;2023-09-19T10:44:45;22.10;99.90
21019;DHT22;10667;51.056;3.732;2023-09-19T10:47:13;22.00;99.90
21019;DHT22;10667;51.056;3.732;2023-09-19T10:49:46;22.00;99.90
21019;DHT22;10667;51.056;3.732;2023-09-19T10:52:18;22.10;99.90
21019;DHT22;10667;51.056;3.732;2023-09-19T10:54:48;22.20;99.90
21019;DHT22;10667;51.056;3.732;2023-09-19T10:57:23;22.20;99.90
21019;DHT22;10667;51.056;3.732;2023-09-19T11:00:08;22.20;99.90
21019;DHT22;10667;51.056;3.732;2023-09-19T11:03:16;22.30;99.90
21019;DHT22;10667;51.056;3.732;2023-09-19T11:08:54;22.20;99.90
21019;DHT22;10667;51.056;3.732;2023-09-19T11:30:41;23.30;99.90
21019;DHT22;10667;51.056;3.732;2023-09-19T11:36:12;23.10;99.90
21019;DHT22;10667;51.056;3.732;2023-09-19T11:49:17;22.50;99.90
21019;DHT22;10667;51.056;3.732;2023-09-19T11:51:50;22.50;99.90
21019;DHT22;10667;51.056;3.732;2023-09-19T11:54:17;22.30;99.90
21019;DHT22;10667;51.056;3.732;2023-09-19T11:56:51;22.50;99.90
21019;DHT22;10667;51.056;3.732;2023-09-19T11:59:27;22.50;99.90
21019;DHT22;10667;51.056;3.732;2023-09-19T12:01:55;22.60;99.90
21019;DHT22;10667;51.056;3.732;2023-09-19T12:04:38;23.30;99.90
21019;DHT22;10667;51.056;3.732;2023-09-19T12:07:14;24.20;99.90
21019;DHT22;10667;51.056;3.732;2023-09-19T12:09:49;24.90;99.90
21019;DHT22;10667;51.056;3.732;2023-09-19T12:12:28;25.30;99.90
21019;DHT22;10667;51.056;3.732;2023-09-19T12:14:54;25.40;99.90
21019;DHT22;10667;51.056;3.732;2023-09-19T12:17:20;25.30;99.90
21019;DHT22;10667;51.056;3.732;2023-09-19T12:19:55;25.10;99.90
21019;DHT22;10667;51.056;3.732;2023-09-19T12:22:20;24.60;99.90
21019;DHT22;10667;51.056;3.732;2023-09-19T12:24:47;24.20;99.90
21019;DHT22;10667;51.056;3.732;2023-09-19T12:27:13;23.70;99.90
21019;DHT22;10667;51.056;3.732;2023-09-19T12:29:47;23.40;99.90
21019;DHT22;10667;51.056;3.732;2023-09-19T12:32:16;23.30;99.90
21019;DHT22;10667;51.056;3.732;2023-09-19T12:34:51;23.30;99.90
21019;DHT22;10667;51.056;3.732;2023-09-19T12:37:18;23.00;99.90
21019;DHT22;10667;51.056;3.732;2023-09-19T12:39:49;23.10;99.90
21019;DHT22;10667;51.056;3.732;2023-09-19T12:42:20;23.10;99.90
21019;DHT22;10667;51.056;3.732;2023-09-19T12:44:49;23.10;99.90
21019;DHT22;10667;51.056;3.732;2023-09-19T12:47:20;23.10;99.90
21019;DHT22;10667;51.056;3.732;2023-09-19T12:50:13;22.90;99.90
21019;DHT22;10667;51.056;3.732;2023-09-19T12:52:51;22.80;99.90
21019;DHT22;10667;51.056;3.732;2023-09-19T12:55:29;22.70;99.90
21019;DHT22;10667;51.056;3.732;2023-09-19T13:00:37;22.60;99.90
21019;DHT22;10667;51.056;3.732;2023-09-19T13:03:25;22.30;99.90
21019;DHT22;10667;51.056;3.732;2023-09-19T13:08:18;22.10;99.90
21019;DHT22;10667;51.056;3.732;2023-09-19T13:13:45;22.10;99.90
21019;DHT22;10667;51.056;3.732;2023-09-19T13:16:14;22.20;99.90
21019;DHT22;10667;51.056;3.732;2023-09-19T13:18:52;22.30;99.90
21019;DHT22;10667;51.056;3.732;2023-09-19T13:21:48;22.30;99.90
21019;DHT22;10667;51.056;3.732;2023-09-19T13:24:22;22.50;99.90
21019;DHT22;10667;51.056;3.732;2023-09-19T13:26:51;22.70;99.90
21019;DHT22;10667;51.056;3.732;2023-09-19T13:29:16;22.80;99.90
21019;DHT22;10667;51.056;3.732;2023-09-19T13:31:51;22.80;99.90
21019;DHT22;10667;51.056;3.732;2023-09-19T13:34:18;23.00;99.90
21019;DHT22;10667;51.056;3.732;2023-09-19T13:36:45;22.80;99.90
21019;DHT22;10667;51.056;3.732;2023-09-19T13:39:17;22.80;99.90
21019;DHT22;10667;51.056;3.732;2023-09-19T13:41:49;22.60;99.90
21019;DHT22;10667;51.056;3.732;2023-09-19T13:44:15;22.40;99.90
21019;DHT22;10667;51.056;3.732;2023-09-19T13:46:42;22.40;99.90
21019;DHT22;10667;51.056;3.732;2023-09-19T13:49:11;22.30;99.90
21019;DHT22;10667;51.056;3.732;2023-09-19T13:51:37;22.30;99.90
21019;DHT22;10667;51.056;3.732;2023-09-19T13:54:03;22.40;99.90
21019;DHT22;10667;51.056;3.732;2023-09-19T13:56:28;22.30;99.90
21019;DHT22;10667;51.056;3.732;2023-09-19T13:58:55;21.90;99.90
21019;DHT22;10667;51.056;3.732;2023-09-19T14:01:21;21.80;99.90
21019;DHT22;10667;51.056;3.732;2023-09-19T14:03:46;21.80;99.90
21019;DHT22;10667;51.056;3.732;2023-09-19T14:06:17;21.90;99.90
21019;DHT22;10667;51.056;3.732;2023-09-19T14:08:44;22.00;99.90
21019;DHT22;10667;51.056;3.732;2023-09-19T14:11:13;21.70;99.90
21019;DHT22;10667;51.056;3.732;2023-09-19T14:13:39;21.80;99.90
21019;DHT22;10667;51.056;3.732;2023-09-19T14:16:06;21.80;99.90
21019;DHT22;10667;51.056;3.732;2023-09-19T14:18:34;21.70;99.90
21019;DHT22;10667;51.056;3.732;2023-09-19T14:21:06;21.90;99.90
21019;DHT22;10667;51.056;3.732;2023-09-19T14:23:39;21.80;99.90
21019;DHT22;10667;51.056;3.732;2023-09-19T14:26:05;21.60;99.90
21019;DHT22;10667;51.056;3.732;2023-09-19T14:28:31;21.60;99.90
21019;DHT22;10667;51.056;3.732;2023-09-19T14:31:04;21.60;99.90
21019;DHT22;10667;51.056;3.732;2023-09-19T14:33:31;21.50;99.90
21019;DHT22;10667;51.056;3.732;2023-09-19T14:35:57;21.60;99.90
21019;DHT22;10667;51.056;3.732;2023-09-19T14:38:22;21.70;99.90
21019;DHT22;10667;51.056;3.732;2023-09-19T14:40:48;21.70;99.90
21019;DHT22;10667;51.056;3.732;2023-09-19T14:43:15;21.70;99.90
21019;DHT22;10667;51.056;3.732;2023-09-19T14:45:41;21.80;99.90
21019;DHT22;10667;51.056;3.732;2023-09-19T14:48:07;21.40;99.90
21019;DHT22;10667;51.056;3.732;2023-09-19T14:50:33;21.30;99.90
21019;DHT22;10667;51.056;3.732;2023-09-19T14:52:58;21.20;99.90
21019;DHT22;10667;51.056;3.732;2023-09-19T14:55:27;21.30;99.90
21019;DHT22;10667;51.056;3.732;2023-09-19T14:57:54;21.40;99.90
21019;DHT22;10667;51.056;3.732;2023-09-19T15:00:22;21.50;99.90
21019;DHT22;10667;51.056;3.732;2023-09-19T15:02:49;21.30;99.90
21019;DHT22;10667;51.056;3.732;2023-09-19T15:05:16;21.40;99.90
21019;DHT22;10667;51.056;3.732;2023-09-19T15:07:42;21.30;99.90
21019;DHT22;10667;51.056;3.732;2023-09-19T15:10:08;21.20;99.90
21019;DHT22;10667;51.056;3.732;2023-09-19T15:12:36;21.30;99.90
21019;DHT22;10667;51.056;3.732;2023-09-19T15:15:06;21.30;99.90
21019;DHT22;10667;51.056;3.732;2023-09-19T15:17:36;21.30;99.90
21019;DHT22;10667;51.056;3.732;2023-09-19T15:20:02;21.20;99.90
21019;DHT22;10667;51.056;3.732;2023-09-19T15:22:28;21.30;99.90
21019;DHT22;10667;51.056;3.732;2023-09-19T15:24:54;21.30;99.90
21019;DHT22;10667;51.056;3.732;2023-09-19T15:27:20;21.30;99.90
21019;DHT22;10667;51.056;3.732;2023-09-19T15:29:46;21.30;99.90
21019;DHT22;10667;51.056;3.732;2023-09-19T15:32:12;21.40;99.90
21019;DHT22;10667;51.056;3.732;2023-09-19T15:34:38;21.20;99.90
21019;DHT22;10667;51.056;3.732;2023-09-19T15:37:04;21.00;99.90
21019;DHT22;10667;51.056;3.732;2023-09-19T15:39:30;20.90;99.90
21019;DHT22;10667;51.056;3.732;2023-09-19T15:41:59;21.10;99.90
21019;DHT22;10667;51.056;3.732;2023-09-19T15:44:24;21.10;99.90
21019;DHT22;10667;51.056;3.732;2023-09-19T15:46:53;21.20;99.90
21019;DHT22;10667;51.056;3.732;2023-09-19T15:49:19;21.10;99.90
21019;DHT22;10667;51.056;3.732;2023-09-19T15:51:44;21.20;99.90
21019;DHT22;10667;51.056;3.732;2023-09-19T15:54:12;21.10;99.90
21019;DHT22;10667;51.056;3.732;2023-09-19T15:56:45;21.00;99.90
21019;DHT22;10667;51.056;3.732;2023-09-19T15:59:11;21.10;99.90
21019;DHT22;10667;51.056;3.732;2023-09-19T16:01:38;21.20;99.90
21019;DHT22;10667;51.056;3.732;2023-09-19T16:04:04;21.00;99.90
21019;DHT22;10667;51.056;3.732;2023-09-19T16:06:30;21.10;99.90
21019;DHT22;10667;51.056;3.732;2023-09-19T16:08:59;21.10;99.90
21019;DHT22;10667;51.056;3.732;2023-09-19T16:11:27;21.00;99.90
21019;DHT22;10667;51.056;3.732;2023-09-19T16:13:53;21.10;99.90
21019;DHT22;10667;51.056;3.732;2023-09-19T16:16:21;21.00;99.90
21019;DHT22;10667;51.056;3.732;2023-09-19T16:18:49;20.90;99.90
21019;DHT22;10667;51.056;3.732;2023-09-19T16:21:16;20.90;99.90
21019;DHT22;10667;51.056;3.732;2023-09-19T16:23:45;20.80;99.90
21019;DHT22;10667;51.056;3.732;2023-09-19T16:26:12;20.60;99.90
21019;DHT22;10667;51.056;3.732;2023-09-19T16:28:40;20.70;99.90
21019;DHT22;10667;51.056;3.732;2023-09-19T16:31:07;20.70;99.90
21019;DHT22;10667;51.056;3.732;2023-09-19T16:33:37;20.50;99.90
21019;DHT22;10667;51.056;3.732;2023-09-19T16:36:10;20.40;99.90
21019;DHT22;10667;51.056;3.732;2023-09-19T16:38:37;20.30;99.90
21019;DHT22;10667;51.056;3.732;2023-09-19T16:41:03;20.10;99.90